Time;durP1;ratioP1;P1;durP2;ratioP2;P2;SDS_P1;SDS_P2;PMS_P1;PMS_P2;Temp;Humidity;BMP_temperature;BMP_pressure;BME280_temperature;BME280_humidity;BME280_pressure;Samples;Min_cycle;Max_cycle;Signal;HPM_P1;HPM_P2
2022/03/13 00:01:01;;;;;;;140.17;59.30;;;0.90;93.20;;;;;;10305270;28;20596;-80
2022/03/13 00:06:35;;;;;;;135.47;55.60;;;0.90;93.70;;;;;;10304772;28;20213;-81
2022/03/13 00:11:58;;;;;;;113.03;52.23;;;0.90;92.90;;;;;;10318078;28;20208;-80
2022/03/13 00:17:21;;;;;;;114.07;49.27;;;0.90;92.60;;;;;;10328720;28;20239;-80
2022/03/13 00:22:44;;;;;;;110.77;49.63;;;0.90;92.40;;;;;;10358891;28;20382;-80
2022/03/13 00:28:07;;;;;;;117.90;50.13;;;0.80;93.50;;;;;;10344077;28;20391;-80
2022/03/13 00:33:29;;;;;;;123.67;51.90;;;0.70;93.20;;;;;;10343743;28;20199;-80
2022/03/13 00:38:51;;;;;;;119.23;52.27;;;0.70;93.00;;;;;;10343225;28;20232;-80
2022/03/13 00:44:14;;;;;;;114.20;51.50;;;0.70;92.70;;;;;;10383371;28;20544;-80
2022/03/13 00:49:36;;;;;;;116.63;50.23;;;0.60;94.00;;;;;;10326320;28;20201;-80
2022/03/13 00:54:58;;;;;;;119.07;50.37;;;0.50;94.90;;;;;;10317409;28;20410;-79
2022/03/13 01:00:20;;;;;;;115.27;48.30;;;0.50;96.60;;;;;;10316153;28;20280;-80
2022/03/13 01:05:42;;;;;;;112.33;47.73;;;0.50;96.00;;;;;;10302420;28;20562;-80
2022/03/13 01:11:04;;;;;;;105.60;46.70;;;0.20;98.70;;;;;;10302338;28;20454;-80
2022/03/13 01:16:34;;;;;;;103.80;46.03;;;0.20;96.10;;;;;;10334406;28;20260;-80
2022/03/13 01:21:55;;;;;;;83.20;39.47;;;0.20;97.10;;;;;;10341764;28;20303;-80
2022/03/13 01:27:17;;;;;;;79.10;36.70;;;0.20;96.70;;;;;;10341315;28;20284;-80
2022/03/13 01:32:42;;;;;;;76.27;35.53;;;0.20;95.60;;;;;;10342118;28;20414;-79
2022/03/13 01:38:05;;;;;;;69.67;34.23;;;0.20;95.90;;;;;;10341597;28;20479;-79
2022/03/13 01:43:30;;;;;;;71.53;32.47;;;0.20;96.70;;;;;;10347347;28;20246;-80
2022/03/13 01:49:05;;;;;;;72.73;32.80;;;0.00;97.10;;;;;;10354220;28;20200;-79
2022/03/13 01:54:32;;;;;;;76.57;35.60;;;-0.10;96.60;;;;;;10341295;28;20202;-80
2022/03/13 01:59:57;;;;;;;76.07;34.60;;;0.00;97.90;;;;;;10343462;28;20252;-80
2022/03/13 02:05:32;;;;;;;80.30;35.17;;;-0.10;97.90;;;;;;10353944;28;20208;-78
2022/03/13 02:10:54;;;;;;;82.50;36.00;;;-0.20;97.50;;;;;;10341241;28;20199;-79
2022/03/13 02:16:18;;;;;;;82.93;35.77;;;-0.20;98.50;;;;;;10353481;28;20214;-79
2022/03/13 02:21:48;;;;;;;87.93;38.67;;;-0.20;97.80;;;;;;10354276;28;20239;-79
2022/03/13 02:27:09;;;;;;;103.17;43.33;;;-0.20;97.50;;;;;;10353749;28;20204;-79
2022/03/13 02:32:32;;;;;;;91.90;40.93;;;-0.30;97.40;;;;;;10340357;28;20277;-79
2022/03/13 02:37:55;;;;;;;93.60;40.40;;;-0.50;99.40;;;;;;10340443;28;20371;-79
2022/03/13 02:43:17;;;;;;;92.70;40.40;;;-0.70;99.90;;;;;;10363631;28;20245;-79
2022/03/13 02:48:39;;;;;;;100.90;42.50;;;-0.80;99.90;;;;;;10346800;28;20558;-79
2022/03/13 02:54:01;;;;;;;97.50;41.80;;;-0.70;99.90;;;;;;10313373;28;20276;-79
2022/03/13 02:59:23;;;;;;;94.53;43.90;;;-0.80;99.90;;;;;;10299913;28;20612;-79
2022/03/13 03:04:48;;;;;;;103.10;42.07;;;-0.80;99.90;;;;;;10298820;28;20211;-79
2022/03/13 03:10:15;;;;;;;93.90;41.77;;;-0.70;99.90;;;;;;10300685;28;20198;-80
2022/03/13 03:15:40;;;;;;;96.57;41.77;;;-0.80;99.90;;;;;;10299221;28;20557;-79
2022/03/13 03:21:02;;;;;;;95.30;41.83;;;-0.90;99.90;;;;;;10305055;28;20227;-80
2022/03/13 03:26:25;;;;;;;96.30;42.17;;;-0.90;99.90;;;;;;10336177;28;20557;-80
2022/03/13 03:31:48;;;;;;;91.47;41.43;;;-0.80;99.90;;;;;;10359659;28;20203;-80
2022/03/13 03:37:11;;;;;;;90.70;41.07;;;-1.00;99.90;;;;;;10344475;28;20196;-80
2022/03/13 03:42:35;;;;;;;98.70;42.17;;;-1.20;99.90;;;;;;10363714;28;20249;-79
2022/03/13 03:47:58;;;;;;;84.60;39.23;;;-1.30;99.90;;;;;;10399959;28;20198;-80
2022/03/13 03:53:20;;;;;;;86.60;40.00;;;-1.20;99.90;;;;;;10385977;28;20203;-80
2022/03/13 03:58:42;;;;;;;78.23;36.70;;;-1.20;99.90;;;;;;10399843;28;20218;-80
2022/03/13 04:04:06;;;;;;;74.00;36.47;;;-1.10;99.90;;;;;;10385837;28;20208;-79
2022/03/13 04:09:28;;;;;;;78.30;36.40;;;-1.10;99.90;;;;;;10351671;28;20200;-80
2022/03/13 04:14:50;;;;;;;67.93;32.90;;;-1.20;99.90;;;;;;10344446;28;20285;-80
2022/03/13 04:20:13;;;;;;;67.43;33.10;;;-1.10;99.90;;;;;;10358329;28;20226;-80
2022/03/13 04:25:37;;;;;;;70.47;33.17;;;-1.10;99.90;;;;;;10358177;28;20208;-80
2022/03/13 04:31:00;;;;;;;65.77;32.77;;;-1.00;99.90;;;;;;10358181;28;20205;-80
2022/03/13 04:36:23;;;;;;;71.73;33.23;;;-1.00;99.90;;;;;;10347741;28;20195;-80
2022/03/13 04:41:45;;;;;;;67.20;32.43;;;-1.10;99.90;;;;;;10321879;28;20241;-79
2022/03/13 04:47:07;;;;;;;80.97;33.90;;;-1.10;99.90;;;;;;10370505;28;20281;-79
2022/03/13 04:52:29;;;;;;;68.30;33.77;;;-1.20;99.90;;;;;;10397583;28;20239;-80
2022/03/13 04:57:52;;;;;;;68.27;32.73;;;-1.20;99.90;;;;;;10383293;28;20198;-80
2022/03/13 05:03:14;;;;;;;63.70;32.70;;;-1.20;99.90;;;;;;10396828;28;20236;-79
2022/03/13 05:08:40;;;;;;;70.17;31.70;;;-1.20;99.90;;;;;;10368697;28;20195;-80
2022/03/13 05:14:03;;;;;;;65.27;32.50;;;-1.30;99.90;;;;;;10345442;28;20278;-80
2022/03/13 05:19:26;;;;;;;71.00;32.63;;;-1.30;99.90;;;;;;10342676;28;20457;-80
2022/03/13 05:24:48;;;;;;;62.63;31.27;;;-1.30;99.90;;;;;;10355508;28;20200;-79
2022/03/13 05:30:12;;;;;;;63.90;31.83;;;-1.20;99.90;;;;;;10342061;28;20238;-80
2022/03/13 05:35:35;;;;;;;67.80;33.10;;;-1.30;99.90;;;;;;10336558;28;20205;-79
2022/03/13 05:40:57;;;;;;;71.80;32.63;;;-1.10;99.90;;;;;;10328990;28;20266;-80
2022/03/13 05:46:19;;;;;;;65.87;31.97;;;-1.00;99.90;;;;;;10355035;28;20266;-79
2022/03/13 05:51:43;;;;;;;79.13;39.00;;;-0.90;99.90;;;;;;10341737;28;20199;-79
2022/03/13 05:57:08;;;;;;;92.57;46.20;;;-0.70;99.90;;;;;;10341494;28;20199;-80
2022/03/13 06:02:31;;;;;;;109.37;49.30;;;-0.60;99.90;;;;;;10354739;28;20222;-80
2022/03/13 06:07:55;;;;;;;116.80;52.77;;;-0.50;99.90;;;;;;10317133;28;20192;-80
2022/03/13 06:13:16;;;;;;;116.67;52.00;;;-0.30;99.90;;;;;;10314003;28;20195;-80
2022/03/13 06:18:39;;;;;;;117.47;49.80;;;-0.20;99.90;;;;;;10313987;28;20202;-80
2022/03/13 06:24:01;;;;;;;101.70;45.07;;;0.00;99.90;;;;;;10300080;28;20237;-80
2022/03/13 06:29:23;;;;;;;92.30;42.07;;;0.10;99.90;;;;;;10300301;28;20203;-80
2022/03/13 06:34:46;;;;;;;110.27;46.13;;;0.30;99.90;;;;;;10300683;28;20236;-79
2022/03/13 06:40:10;;;;;;;126.77;53.50;;;0.50;99.90;;;;;;10319239;28;20303;-80
2022/03/13 06:45:32;;;;;;;126.33;55.27;;;0.80;99.90;;;;;;10341064;28;20509;-80
2022/03/13 06:50:54;;;;;;;143.83;62.63;;;1.10;99.90;;;;;;10353554;28;20227;-80
2022/03/13 06:56:18;;;;;;;112.20;50.63;;;1.60;99.90;;;;;;10347583;28;20208;-80
2022/03/13 07:01:40;;;;;;;101.60;48.50;;;2.50;97.90;;;;;;10362149;28;20296;-80
2022/03/13 07:07:02;;;;;;;120.73;54.50;;;4.90;88.80;;;;;;10361781;28;20204;-80
2022/03/13 07:12:25;;;;;;;82.53;43.05;;;7.10;48.30;;;;;;10333749;28;20199;-78
2022/03/13 07:17:47;;;;;;;53.92;29.02;;;8.60;35.20;;;;;;10320236;28;20306;-80
2022/03/13 07:23:09;;;;;;;51.83;26.75;;;10.10;28.20;;;;;;10319835;28;20456;-79
2022/03/13 07:28:32;;;;;;;47.70;27.20;;;10.90;24.80;;;;;;10353571;28;20253;-80
2022/03/13 07:33:54;;;;;;;29.92;18.65;;;11.50;22.70;;;;;;10346353;28;20208;-80
2022/03/13 07:39:16;;;;;;;22.88;14.98;;;12.30;20.20;;;;;;10307992;28;20214;-80
2022/03/13 07:44:38;;;;;;;23.45;14.15;;;12.80;18.50;;;;;;10359157;28;20213;-80
2022/03/13 07:50:28;;;;;;;27.45;17.95;;;12.80;17.90;;;;;;10359508;28;20261;-80
2022/03/13 07:55:50;;;;;;;20.45;13.52;;;13.50;17.10;;;;;;10359213;28;20236;-80
2022/03/13 08:01:16;;;;;;;21.02;11.40;;;13.90;16.30;;;;;;10359054;28;20233;-80
2022/03/13 08:06:39;;;;;;;16.45;9.82;;;14.40;15.90;;;;;;10357087;28;20274;-80
2022/03/13 08:12:03;;;;;;;27.50;16.10;;;14.60;14.90;;;;;;10358640;28;20533;-80
2022/03/13 08:17:25;;;;;;;20.02;12.38;;;14.80;14.70;;;;;;10358026;28;20217;-80
2022/03/13 08:22:49;;;;;;;19.38;12.10;;;14.90;14.00;;;;;;10357977;28;20222;-81
2022/03/13 08:28:12;;;;;;;19.23;10.07;;;14.90;13.70;;;;;;10344091;28;20554;-80
2022/03/13 08:33:35;;;;;;;13.55;9.10;;;15.00;13.30;;;;;;10344210;28;20202;-80
2022/03/13 08:38:57;;;;;;;18.17;10.35;;;15.00;12.80;;;;;;10357138;28;20429;-79
2022/03/13 08:44:22;;;;;;;25.25;10.80;;;15.00;11.90;;;;;;10386229;28;20205;-79
2022/03/13 08:49:44;;;;;;;14.82;9.00;;;15.10;12.00;;;;;;10397396;28;20224;-79
2022/03/13 08:55:08;;;;;;;16.05;9.88;;;15.50;11.60;;;;;;10369874;28;20419;-79
2022/03/13 09:00:34;;;;;;;18.20;10.52;;;15.40;11.70;;;;;;10383825;28;20225;-79
2022/03/13 09:05:58;;;;;;;13.05;8.85;;;15.70;10.80;;;;;;10368410;28;20508;-79
2022/03/13 09:11:20;;;;;;;18.20;10.85;;;16.30;9.90;;;;;;10356708;28;20197;-79
2022/03/13 09:16:43;;;;;;;18.55;11.18;;;16.10;9.80;;;;;;10356985;28;20373;-79
2022/03/13 09:22:05;;;;;;;14.65;9.35;;;16.20;10.00;;;;;;10356476;28;20222;-79
2022/03/13 09:27:29;;;;;;;18.23;11.95;;;16.50;9.50;;;;;;10356463;28;20248;-79
2022/03/13 09:32:51;;;;;;;16.38;9.70;;;16.60;8.70;;;;;;10355338;28;20193;-78
2022/03/13 09:38:13;;;;;;;14.27;10.00;;;16.30;9.30;;;;;;10325395;28;20516;-79
2022/03/13 09:43:35;;;;;;;15.85;10.70;;;17.40;8.90;;;;;;10362415;28;20247;-80
2022/03/13 09:48:58;;;;;;;28.10;15.20;;;17.50;8.10;;;;;;10395355;28;20200;-80
2022/03/13 09:54:22;;;;;;;16.00;10.80;;;18.10;8.20;;;;;;10395491;28;20205;-80
2022/03/13 09:59:46;;;;;;;22.38;13.75;;;18.10;8.00;;;;;;10368057;28;20223;-81
2022/03/13 10:05:15;;;;;;;23.10;12.57;;;18.00;7.70;;;;;;10386146;28;20240;-81
2022/03/13 10:10:42;;;;;;;17.88;10.57;;;18.20;7.10;;;;;;10355666;28;20190;-81
2022/03/13 10:16:09;;;;;;;15.32;8.35;;;17.90;6.70;;;;;;10340811;28;20216;-79
2022/03/13 10:21:32;;;;;;;12.65;7.95;;;18.10;6.20;;;;;;10354180;28;20218;-80
2022/03/13 10:27:11;;;;;;;14.13;7.32;;;18.40;5.50;;;;;;10341590;28;20197;-80
2022/03/13 10:32:38;;;;;;;13.60;8.88;;;18.20;5.30;;;;;;10348773;28;20206;-81
2022/03/13 10:38:32;;;;;;;12.40;8.93;;;18.10;5.70;;;;;;10329794;28;20194;-82
2022/03/13 10:43:58;;;;;;;14.40;8.60;;;18.60;6.10;;;;;;10386199;28;20249;-82
2022/03/13 10:49:40;;;;;;;15.57;8.68;;;18.70;5.60;;;;;;10403201;28;20200;-82
2022/03/13 10:55:24;;;;;;;11.20;8.15;;;19.30;4.60;;;;;;10388138;28;20228;-82
2022/03/13 11:01:04;;;;;;;15.10;8.20;;;18.90;4.50;;;;;;10374101;28;20481;-80
2022/03/13 11:06:27;;;;;;;12.70;8.10;;;19.20;5.20;;;;;;10365328;28;20198;-80
2022/03/13 11:11:50;;;;;;;15.48;8.63;;;19.80;4.80;;;;;;10347141;28;20228;-80
2022/03/13 11:17:14;;;;;;;12.55;9.10;;;;;;;;;;10360777;28;20193;-80
2022/03/13 11:22:36;;;;;;;12.45;8.43;;;20.40;3.90;;;;;;10360061;28;20296;-80
2022/03/13 11:27:58;;;;;;;13.32;8.30;;;20.10;4.40;;;;;;10319121;28;20202;-80
2022/03/13 11:33:47;;;;;;;12.07;8.13;;;20.80;4.70;;;;;;10319504;28;20198;-80
2022/03/13 11:39:10;;;;;;;11.95;8.65;;;20.50;3.80;;;;;;10331486;28;20201;-79
2022/03/13 11:44:33;;;;;;;13.45;8.57;;;20.30;4.30;;;;;;10389997;28;20209;-79
2022/03/13 11:49:55;;;;;;;14.57;8.63;;;20.10;4.40;;;;;;10386422;28;20204;-80
2022/03/13 11:55:23;;;;;;;11.10;7.43;;;20.00;4.00;;;;;;10399715;28;20216;-82
2022/03/13 12:00:46;;;;;;;12.50;7.18;;;20.60;3.30;;;;;;10385426;28;20445;-81
2022/03/13 12:06:08;;;;;;;18.98;12.93;;;19.70;3.60;;;;;;10363654;28;20194;-81
2022/03/13 12:11:45;;;;;;;15.35;9.98;;;19.90;3.30;;;;;;10357970;28;20202;-82
2022/03/13 12:17:10;;;;;;;12.63;8.63;;;20.00;2.90;;;;;;10346858;28;20438;-81
2022/03/13 12:22:33;;;;;;;12.38;8.80;;;20.10;2.70;;;;;;10357546;28;20259;-82
2022/03/13 12:27:55;;;;;;;13.52;7.45;;;20.00;3.20;;;;;;10358312;28;20209;-82
2022/03/13 12:33:17;;;;;;;15.35;9.80;;;20.60;3.20;;;;;;10343746;28;20202;-81
2022/03/13 12:38:43;;;;;;;13.02;9.23;;;21.10;3.00;;;;;;10343747;28;20201;-81
2022/03/13 12:44:05;;;;;;;15.55;9.77;;;20.40;3.20;;;;;;10348785;28;20280;-81
2022/03/13 12:49:29;;;;;;;21.23;10.88;;;20.30;2.70;;;;;;10356260;28;20547;-81
2022/03/13 12:55:00;;;;;;;19.13;10.52;;;20.30;3.20;;;;;;10369896;28;20190;-80
2022/03/13 13:00:32;;;;;;;13.32;8.73;;;20.00;3.40;;;;;;10356404;28;20590;-81
2022/03/13 13:05:55;;;;;;;15.45;10.40;;;20.00;2.80;;;;;;10341832;28;20594;-81
2022/03/13 13:11:28;;;;;;;17.02;12.02;;;19.70;3.20;;;;;;10355956;28;20387;-81
2022/03/13 13:16:53;;;;;;;28.55;12.90;;;19.40;3.30;;;;;;10355937;28;20347;-81
2022/03/13 13:22:22;;;;;;;22.00;14.05;;;19.10;3.80;;;;;;10354995;28;20237;-81
2022/03/13 13:27:46;;;;;;;26.40;14.05;;;19.20;3.60;;;;;;10341415;28;20208;-81
2022/03/13 13:33:12;;;;;;;25.20;15.60;;;19.00;3.00;;;;;;10356161;28;20252;-81
2022/03/13 13:38:35;;;;;;;21.70;15.10;;;19.00;3.10;;;;;;10301105;28;20225;-80
2022/03/13 13:43:58;;;;;;;28.83;16.63;;;19.00;3.40;;;;;;10352289;28;20332;-81
2022/03/13 13:49:27;;;;;;;36.60;17.85;;;18.60;3.20;;;;;;10341378;28;20201;-81
2022/03/13 13:54:49;;;;;;;26.30;16.77;;;18.00;3.60;;;;;;10340624;28;20255;-81
2022/03/13 14:00:26;;;;;;;26.40;16.35;;;16.90;3.90;;;;;;10354627;28;20215;-82
2022/03/13 14:05:49;;;;;;;27.65;16.92;;;16.80;4.50;;;;;;10339543;28;20196;-79
2022/03/13 14:11:20;;;;;;;24.60;16.58;;;16.10;4.80;;;;;;10340193;28;20214;-81
2022/03/13 14:16:43;;;;;;;24.08;14.80;;;15.60;5.20;;;;;;10340700;28;20235;-79
2022/03/13 14:22:13;;;;;;;24.80;14.55;;;15.10;5.20;;;;;;10353510;28;20228;-81
2022/03/13 14:27:36;;;;;;;26.33;15.88;;;14.20;5.10;;;;;;10353872;28;20230;-81
2022/03/13 14:32:58;;;;;;;20.38;13.65;;;13.50;6.30;;;;;;10353837;28;20199;-82
2022/03/13 14:38:20;;;;;;;22.38;15.40;;;13.10;6.60;;;;;;10329160;28;20204;-80
2022/03/13 14:43:42;;;;;;;24.70;15.02;;;12.90;7.10;;;;;;10349042;28;20252;-80
2022/03/13 14:49:06;;;;;;;22.97;14.53;;;12.60;7.80;;;;;;10353416;28;20267;-81
2022/03/13 14:54:29;;;;;;;24.10;16.13;;;12.20;8.20;;;;;;10339948;28;20220;-80
2022/03/13 14:59:52;;;;;;;24.07;16.20;;;12.20;8.90;;;;;;10339464;28;20194;-81
2022/03/13 15:05:14;;;;;;;23.47;15.70;;;12.10;9.60;;;;;;10339424;28;20219;-81
2022/03/13 15:10:36;;;;;;;32.60;20.10;;;12.00;10.20;;;;;;10353351;28;20296;-81
2022/03/13 15:15:59;;;;;;;26.73;17.40;;;12.50;10.10;;;;;;10344909;28;20202;-81
2022/03/13 15:21:23;;;;;;;29.73;19.50;;;12.20;10.50;;;;;;10359754;28;20226;-81
2022/03/13 15:26:45;;;;;;;33.07;17.63;;;11.90;11.20;;;;;;10346168;28;20255;-81
2022/03/13 15:32:10;;;;;;;27.37;18.33;;;11.60;11.80;;;;;;10360906;28;20224;-81
2022/03/13 15:37:33;;;;;;;35.33;21.33;;;11.40;12.10;;;;;;10359546;28;20490;-81
2022/03/13 15:42:55;;;;;;;31.37;19.53;;;11.30;12.60;;;;;;10365784;28;20279;-81
2022/03/13 15:48:18;;;;;;;32.10;18.60;;;11.20;12.70;;;;;;10399580;28;20200;-81
2022/03/13 15:53:43;;;;;;;29.90;18.90;;;11.00;12.80;;;;;;10386141;28;20204;-81
2022/03/13 15:59:05;;;;;;;27.87;17.53;;;10.90;13.20;;;;;;10380574;28;20393;-81
2022/03/13 16:04:27;;;;;;;27.70;18.27;;;10.70;13.20;;;;;;10358208;28;20433;-81
2022/03/13 16:09:50;;;;;;;28.87;17.40;;;10.60;13.40;;;;;;10358479;28;20192;-80
2022/03/13 16:15:15;;;;;;;29.33;18.80;;;10.40;13.70;;;;;;10344845;28;20204;-81
2022/03/13 16:20:39;;;;;;;30.43;19.57;;;10.30;14.10;;;;;;10357721;28;20220;-81
2022/03/13 16:26:01;;;;;;;40.27;25.33;;;10.20;14.30;;;;;;10343292;28;20395;-81
2022/03/13 16:31:23;;;;;;;46.57;26.93;;;10.10;14.60;;;;;;10320347;28;20194;-80
2022/03/13 16:36:47;;;;;;;44.67;26.17;;;9.90;15.00;;;;;;10317437;28;20201;-81
2022/03/13 16:42:11;;;;;;;39.47;22.53;;;9.80;15.40;;;;;;10341653;28;20247;-81
2022/03/13 16:47:37;;;;;;;42.70;24.13;;;9.60;15.70;;;;;;10383581;28;20205;-81
2022/03/13 16:53:00;;;;;;;41.77;22.90;;;9.50;16.10;;;;;;10398230;28;20215;-81
2022/03/13 16:58:23;;;;;;;48.33;27.50;;;9.30;16.30;;;;;;10367603;28;20190;-81
2022/03/13 17:03:45;;;;;;;122.07;58.83;;;9.20;16.50;;;;;;10342425;28;20452;-81
2022/03/13 17:09:11;;;;;;;154.10;67.10;;;9.10;16.60;;;;;;10356143;28;20204;-81
2022/03/13 17:14:33;;;;;;;105.70;47.50;;;8.90;16.90;;;;;;10342186;28;20261;-80
2022/03/13 17:19:55;;;;;;;80.63;39.13;;;8.70;17.10;;;;;;10355695;28;20461;-81
2022/03/13 17:25:17;;;;;;;69.87;34.30;;;8.50;17.70;;;;;;10341529;28;20205;-81
2022/03/13 17:30:44;;;;;;;59.53;28.77;;;8.30;18.30;;;;;;10308820;28;20270;-81
2022/03/13 17:36:06;;;;;;;66.57;32.60;;;8.20;18.80;;;;;;10314168;28;20206;-81
2022/03/13 17:41:28;;;;;;;54.73;29.10;;;8.00;19.30;;;;;;10341790;28;20311;-81
2022/03/13 17:46:50;;;;;;;50.17;26.13;;;7.80;19.90;;;;;;10395140;28;20241;-80
2022/03/13 17:52:12;;;;;;;54.37;27.80;;;7.60;20.30;;;;;;10395471;28;20200;-80
2022/03/13 17:57:35;;;;;;;61.93;29.17;;;7.50;20.60;;;;;;10383077;28;20201;-80
2022/03/13 18:02:57;;;;;;;60.97;30.80;;;7.30;21.00;;;;;;10316310;28;20232;-80
2022/03/13 18:08:20;;;;;;;59.67;29.50;;;7.20;21.50;;;;;;10314059;28;20192;-80
2022/03/13 18:13:41;;;;;;;67.07;31.10;;;7.10;21.90;;;;;;10313805;28;20205;-80
2022/03/13 18:19:04;;;;;;;68.80;32.33;;;7.00;22.40;;;;;;10313563;28;20195;-80
2022/03/13 18:24:26;;;;;;;80.50;36.77;;;6.90;22.90;;;;;;10313897;28;20525;-80
2022/03/13 18:29:48;;;;;;;79.27;38.40;;;6.90;23.30;;;;;;10327010;28;20219;-80
2022/03/13 18:35:10;;;;;;;77.60;37.80;;;6.80;23.90;;;;;;10314456;28;20265;-80
2022/03/13 18:40:34;;;;;;;79.90;41.30;;;6.70;24.50;;;;;;10312535;28;20230;-80
2022/03/13 18:45:57;;;;;;;71.60;39.20;;;6.50;25.20;;;;;;10394382;28;20248;-80
2022/03/13 18:51:22;;;;;;;82.50;42.00;;;6.40;25.80;;;;;;10387214;28;20198;-80
2022/03/13 18:56:44;;;;;;;77.20;39.33;;;6.40;26.60;;;;;;10367967;28;20277;-80
2022/03/13 19:02:09;;;;;;;83.73;38.93;;;6.30;27.50;;;;;;10346945;28;20303;-80
2022/03/13 19:07:32;;;;;;;85.53;39.37;;;6.30;28.40;;;;;;10347626;28;20196;-80
2022/03/13 19:12:56;;;;;;;78.60;37.70;;;6.20;30.00;;;;;;10346779;28;20205;-80
2022/03/13 19:18:18;;;;;;;78.80;35.37;;;6.00;32.90;;;;;;10346528;28;20202;-80
2022/03/13 19:23:41;;;;;;;86.83;38.50;;;5.90;37.20;;;;;;10346576;28;20228;-80
2022/03/13 19:29:05;;;;;;;84.37;40.33;;;5.80;41.90;;;;;;10335412;28;20523;-81
2022/03/13 19:34:28;;;;;;;73.23;37.60;;;5.70;47.20;;;;;;10319589;28;20210;-80
2022/03/13 19:39:51;;;;;;;73.57;35.97;;;5.70;53.10;;;;;;10310822;28;20226;-81
2022/03/13 19:45:14;;;;;;;75.43;37.00;;;5.60;58.50;;;;;;10347626;28;20264;-80
2022/03/13 19:50:38;;;;;;;68.47;33.97;;;5.60;64.60;;;;;;10345548;28;20201;-81
2022/03/13 19:56:00;;;;;;;68.90;34.47;;;5.50;70.10;;;;;;10358433;28;20225;-80
2022/03/13 20:01:23;;;;;;;70.00;37.30;;;5.30;74.00;;;;;;10357805;28;20224;-80
2022/03/13 20:06:45;;;;;;;67.50;35.10;;;5.10;78.20;;;;;;10358751;28;20196;-80
2022/03/13 20:12:18;;;;;;;68.70;36.50;;;4.90;82.20;;;;;;10358367;28;20220;-81
2022/03/13 20:17:41;;;;;;;61.87;33.60;;;4.70;87.10;;;;;;10344970;28;20268;-81
2022/03/13 20:23:03;;;;;;;60.77;32.33;;;4.70;90.80;;;;;;10344258;28;20235;-80
2022/03/13 20:28:25;;;;;;;58.60;31.30;;;4.40;92.30;;;;;;10331992;28;20495;-81
2022/03/13 20:33:47;;;;;;;64.30;33.13;;;4.70;94.20;;;;;;10343823;28;20214;-80
2022/03/13 20:39:14;;;;;;;62.63;34.17;;;4.60;95.30;;;;;;10343717;28;20204;-80
2022/03/13 20:44:36;;;;;;;62.80;34.60;;;4.50;96.50;;;;;;10313568;28;20228;-80
2022/03/13 20:49:58;;;;;;;68.50;35.37;;;4.40;97.50;;;;;;10289774;28;20231;-80
2022/03/13 20:55:20;;;;;;;69.17;35.40;;;4.40;98.60;;;;;;10329917;28;20204;-80
2022/03/13 21:00:43;;;;;;;64.83;35.73;;;4.30;98.90;;;;;;10316204;28;20274;-80
2022/03/13 21:06:06;;;;;;;62.43;35.40;;;4.20;99.20;;;;;;10289193;28;20392;-80
2022/03/13 21:11:38;;;;;;;71.40;38.53;;;4.10;99.90;;;;;;10315550;28;20204;-80
2022/03/13 21:17:01;;;;;;;66.43;35.70;;;4.00;99.90;;;;;;10302227;28;20209;-80
2022/03/13 21:22:23;;;;;;;69.30;36.13;;;3.80;99.90;;;;;;10316237;28;20294;-80
2022/03/13 21:27:46;;;;;;;71.57;38.47;;;3.70;99.90;;;;;;10339668;28;20201;-79
2022/03/13 21:33:09;;;;;;;70.60;36.43;;;3.50;99.90;;;;;;10341717;28;20203;-80
2022/03/13 21:38:31;;;;;;;67.03;37.67;;;3.60;99.90;;;;;;10341188;28;20229;-80
2022/03/13 21:43:53;;;;;;;63.90;36.13;;;3.60;99.90;;;;;;10328031;28;20255;-80
2022/03/13 21:49:15;;;;;;;62.63;33.17;;;3.60;99.90;;;;;;10316896;28;20244;-80
2022/03/13 21:54:37;;;;;;;61.93;31.07;;;3.70;99.90;;;;;;10316761;28;20206;-80
2022/03/13 22:00:00;;;;;;;57.30;29.63;;;3.90;99.90;;;;;;10301071;28;20500;-80
2022/03/13 22:05:35;;;;;;;50.07;26.73;;;3.90;99.90;;;;;;10315184;28;20237;-80
2022/03/13 22:10:58;;;;;;;48.87;26.53;;;4.00;99.90;;;;;;10314033;28;20198;-80
2022/03/13 22:16:20;;;;;;;51.93;26.07;;;4.00;99.90;;;;;;10300581;28;20199;-79
2022/03/13 22:21:43;;;;;;;47.70;24.90;;;4.00;99.90;;;;;;10313544;28;20225;-79
2022/03/13 22:27:05;;;;;;;40.63;24.00;;;4.00;99.90;;;;;;10343461;28;20265;-79
2022/03/13 22:32:27;;;;;;;43.67;25.23;;;4.00;99.90;;;;;;10362618;28;20202;-79
2022/03/13 22:37:52;;;;;;;49.77;26.00;;;4.00;99.90;;;;;;10361771;28;20221;-80
2022/03/13 22:43:14;;;;;;;47.00;26.77;;;4.00;99.90;;;;;;10384793;28;20321;-80
2022/03/13 22:48:37;;;;;;;48.50;25.60;;;3.90;99.90;;;;;;10402231;28;20198;-80
2022/03/13 22:53:59;;;;;;;52.33;27.30;;;3.90;99.90;;;;;;10388339;28;20210;-80
2022/03/13 22:59:21;;;;;;;53.00;25.80;;;3.90;99.90;;;;;;10352623;28;20202;-80
2022/03/13 23:04:44;;;;;;;49.63;27.40;;;3.80;99.90;;;;;;10347020;28;20282;-80
2022/03/13 23:10:08;;;;;;;52.13;26.30;;;3.70;99.90;;;;;;10346276;28;20230;-80
2022/03/13 23:15:30;;;;;;;56.17;29.13;;;3.70;99.90;;;;;;10320845;28;20219;-80
2022/03/13 23:20:54;;;;;;;54.30;27.90;;;3.60;99.90;;;;;;10339336;28;20187;-79
2022/03/13 23:26:20;;;;;;;48.83;26.10;;;3.50;99.90;;;;;;10346495;28;20237;-80
2022/03/13 23:31:42;;;;;;;46.70;26.20;;;3.50;99.90;;;;;;10359729;28;20273;-80
2022/03/13 23:37:05;;;;;;;50.63;26.33;;;3.40;99.90;;;;;;10345802;28;20425;-79
2022/03/13 23:42:28;;;;;;;48.07;25.80;;;3.40;99.90;;;;;;10368739;28;20298;-80
2022/03/13 23:47:52;;;;;;;59.00;27.30;;;3.40;99.90;;;;;;10399733;28;20506;-79
2022/03/13 23:53:15;;;;;;;45.57;25.50;;;3.40;99.90;;;;;;10332271;28;20206;-80
2022/03/13 23:58:37;;;;;;;45.00;25.50;;;3.30;99.90;;;;;;10345511;28;20198;-80
